Terminal Aerodrome Forecast
Issued by NWS

Home | Current Version | Previous Version | Text Only | Print | Product List | Glossary On
Versions: 1 2 3 4 5 6 7 8 9 10 11 12 13 14 15 16 17
000
FTUS45 KRIW 292322
TAFCPR
TAF
KCPR 292322Z 3000/3024 05009KT P6SM SCT250
     FM300200 11009KT P6SM FEW080 SCT200
     FM300800 23011KT P6SM SKC
     FM301700 26011KT P6SM SCT110
     FM302000 33013G22KT P6SM VCTS SCT080CB BKN100=

USA.gov is the U.S. government's official web portal to all federal, state and local government web resources and services.